createdAt,value
2023-05-04T00:02:17.081Z,10.97
2023-05-04T00:04:46.355Z,10.86
2023-05-04T00:07:16.635Z,10.91
2023-05-04T00:09:44.531Z,10.95
2023-05-04T00:12:12.346Z,10.98
2023-05-04T00:14:40.172Z,11.01
2023-05-04T00:17:08.150Z,10.63
2023-05-04T00:19:37.264Z,10.78
2023-05-04T00:22:06.469Z,10.60
2023-05-04T00:24:34.395Z,10.85
2023-05-04T00:27:02.295Z,10.81
2023-05-04T00:29:32.917Z,10.69
2023-05-04T00:32:01.568Z,10.56
2023-05-04T00:34:30.649Z,10.65
2023-05-04T00:36:59.175Z,10.58
2023-05-04T00:39:28.434Z,10.52
2023-05-04T00:41:56.586Z,10.56
2023-05-04T00:44:24.529Z,10.35
2023-05-04T00:46:53.514Z,10.41
2023-05-04T00:49:25.177Z,10.37
2023-05-04T00:51:55.684Z,10.26
2023-05-04T00:54:24.462Z,10.17
2023-05-04T00:56:54.538Z,10.09
2023-05-04T00:59:22.429Z,10.09
2023-05-04T01:01:53.336Z,9.99
2023-05-04T01:04:21.640Z,10.18
2023-05-04T01:06:53.834Z,10.16
2023-05-04T01:09:31.090Z,10.42
2023-05-04T01:12:07.140Z,10.80
2023-05-04T01:14:35.594Z,10.90
2023-05-04T01:17:06.165Z,10.97
2023-05-04T01:19:36.547Z,11.01
2023-05-04T01:22:07.106Z,11.04
2023-05-04T01:24:35.039Z,11.06
2023-05-04T01:27:06.645Z,11.09
2023-05-04T01:29:40.606Z,10.93
2023-05-04T01:32:12.717Z,10.99
2023-05-04T01:34:42.201Z,11.03
2023-05-04T01:37:11.696Z,10.98
2023-05-04T01:39:39.731Z,10.88
2023-05-04T01:42:08.244Z,10.72
2023-05-04T01:44:36.082Z,10.72
2023-05-04T01:47:06.095Z,10.62
2023-05-04T01:49:33.933Z,10.63
2023-05-04T01:52:01.813Z,10.73
2023-05-04T01:54:31.014Z,10.48
2023-05-04T01:56:58.877Z,10.49
2023-05-04T01:59:30.305Z,10.31
2023-05-04T02:01:58.150Z,10.14
2023-05-04T02:04:27.275Z,10.29
2023-05-04T02:06:55.127Z,10.39
2023-05-04T02:09:23.017Z,10.05
2023-05-04T02:11:52.430Z,9.76
2023-05-04T02:14:20.897Z,9.85
2023-05-04T02:16:48.836Z,9.68
2023-05-04T02:19:16.758Z,9.95
2023-05-04T02:21:44.691Z,10.05
2023-05-04T02:24:12.759Z,9.85
2023-05-04T02:26:40.599Z,9.90
2023-05-04T02:29:09.720Z,10.04
2023-05-04T02:31:37.776Z,10.13
2023-05-04T02:34:08.141Z,10.15
2023-05-04T02:36:42.376Z,10.00
2023-05-04T02:39:10.234Z,10.05
2023-05-04T02:41:38.102Z,10.00
2023-05-04T02:44:06.319Z,9.87
2023-05-04T02:46:35.588Z,9.65
2023-05-04T02:49:03.388Z,9.74
2023-05-04T02:51:31.260Z,9.77
2023-05-04T02:53:59.098Z,9.86
2023-05-04T02:56:26.880Z,9.73
2023-05-04T02:58:54.686Z,9.64
2023-05-04T03:01:22.517Z,9.17
2023-05-04T03:03:51.807Z,9.03
2023-05-04T03:06:19.609Z,9.20
2023-05-04T03:08:47.464Z,9.48
2023-05-04T03:11:15.342Z,9.72
2023-05-04T03:13:43.378Z,9.83
2023-05-04T03:16:12.232Z,9.87
2023-05-04T03:18:40.078Z,9.75
2023-05-04T03:21:09.341Z,9.82
2023-05-04T03:23:37.839Z,9.84
2023-05-04T03:26:05.944Z,9.72
2023-05-04T03:28:34.025Z,9.44
2023-05-04T03:31:01.921Z,9.32
2023-05-04T03:33:30.780Z,9.39
2023-05-04T03:35:58.651Z,9.51
2023-05-04T03:38:27.898Z,9.24
2023-05-04T03:40:56.428Z,9.06
2023-05-04T03:43:24.604Z,9.19
2023-05-04T03:45:53.713Z,9.00
2023-05-04T03:48:21.499Z,9.27
2023-05-04T03:50:49.517Z,9.33
2023-05-04T03:53:17.377Z,9.36
2023-05-04T03:55:46.539Z,8.92
2023-05-04T03:58:14.393Z,8.77
2023-05-04T04:00:42.572Z,8.79
2023-05-04T04:03:15.727Z,9.08
2023-05-04T04:05:43.782Z,9.11
2023-05-04T04:08:12.576Z,9.22
2023-05-04T04:10:40.853Z,9.35
2023-05-04T04:13:10.207Z,9.20
2023-05-04T04:15:38.087Z,9.21
2023-05-04T04:18:06.005Z,9.04
2023-05-04T04:20:33.976Z,9.14
2023-05-04T04:23:01.823Z,9.53
2023-05-04T04:25:29.626Z,9.85
2023-05-04T04:27:57.694Z,9.99
2023-05-04T04:30:27.125Z,9.98
2023-05-04T04:32:57.549Z,10.38
2023-05-04T04:35:25.437Z,10.50
2023-05-04T04:37:53.265Z,10.16
2023-05-04T04:40:22.476Z,10.37
2023-05-04T04:42:50.599Z,10.25
2023-05-04T04:45:18.876Z,10.11
2023-05-04T04:47:50.117Z,9.75
2023-05-04T04:50:18.226Z,10.42
2023-05-04T04:52:46.377Z,10.64
2023-05-04T04:55:15.565Z,10.73
2023-05-04T04:57:43.549Z,10.78
2023-05-04T05:00:14.102Z,10.56
2023-05-04T05:02:42.435Z,10.16
2023-05-04T05:05:12.901Z,9.88
2023-05-04T05:07:42.988Z,9.75
2023-05-04T05:10:12.498Z,10.04
2023-05-04T05:12:40.471Z,9.94
2023-05-04T05:15:09.362Z,10.05
2023-05-04T05:17:38.101Z,10.38
2023-05-04T05:20:11.230Z,10.54
2023-05-04T05:22:40.460Z,10.71
2023-05-04T05:25:09.260Z,10.36
2023-05-04T05:27:37.669Z,9.61
2023-05-04T05:30:07.137Z,9.80
2023-05-04T05:32:35.214Z,9.92
2023-05-04T05:35:03.088Z,10.10
2023-05-04T05:37:31.483Z,10.29
2023-05-04T05:40:00.777Z,10.56
2023-05-04T05:42:30.195Z,10.94
2023-05-04T05:44:57.968Z,10.84
2023-05-04T05:47:25.787Z,10.60
2023-05-04T05:49:54.368Z,10.62
2023-05-04T05:52:22.117Z,10.49
2023-05-04T05:54:49.977Z,10.80
2023-05-04T05:57:20.673Z,10.95
2023-05-04T05:59:48.763Z,11.52
2023-05-04T06:02:16.483Z,11.37
2023-05-04T06:04:45.420Z,11.74
2023-05-04T06:07:14.535Z,11.99
2023-05-04T06:09:42.369Z,12.19
2023-05-04T06:12:15.041Z,11.86
2023-05-04T06:14:44.250Z,12.28
2023-05-04T06:17:12.078Z,12.61
2023-05-04T06:19:39.933Z,12.83
2023-05-04T06:22:08.417Z,12.48
2023-05-04T06:24:36.152Z,12.86
2023-05-04T06:27:04.344Z,13.19
2023-05-04T06:29:32.206Z,13.28
2023-05-04T06:32:03.548Z,12.96
2023-05-04T06:34:31.358Z,13.44
2023-05-04T06:37:01.402Z,13.81
2023-05-04T06:39:29.164Z,13.11
2023-05-04T06:41:57.092Z,13.32
2023-05-04T06:44:29.584Z,13.33
2023-05-04T06:46:57.325Z,13.51
2023-05-04T06:49:26.485Z,13.43
2023-05-04T06:51:54.579Z,13.32
2023-05-04T06:54:22.382Z,13.53
2023-05-04T06:56:50.734Z,13.84
2023-05-04T06:59:20.363Z,14.01
2023-05-04T07:01:48.291Z,14.77
2023-05-04T07:04:17.209Z,14.95
2023-05-04T07:06:46.616Z,15.09
2023-05-04T07:09:14.395Z,14.92
2023-05-04T07:11:42.217Z,15.48
2023-05-04T07:14:10.568Z,15.51
2023-05-04T07:16:38.723Z,16.05
2023-05-04T07:19:06.961Z,15.85
2023-05-04T07:21:34.754Z,16.02
2023-05-04T07:24:04.429Z,16.22
2023-05-04T07:26:32.178Z,16.58
2023-05-04T07:29:00.129Z,17.04
2023-05-04T07:31:30.199Z,16.94
2023-05-04T07:33:58.500Z,16.94
2023-05-04T07:36:27.776Z,16.93
2023-05-04T07:38:55.637Z,17.74
2023-05-04T07:41:24.812Z,17.43
2023-05-04T07:43:52.713Z,18.08
2023-05-04T07:46:20.620Z,17.36
2023-05-04T07:48:49.288Z,18.45
2023-05-04T07:51:17.262Z,18.87
2023-05-04T07:53:45.169Z,18.75
2023-05-04T07:56:13.894Z,19.54
2023-05-04T07:58:43.154Z,19.48
2023-05-04T08:01:11.034Z,19.46
2023-05-04T08:03:38.825Z,19.60
2023-05-04T08:06:08.749Z,19.87
2023-05-04T08:08:36.655Z,20.26
2023-05-04T08:11:19.390Z,20.42
2023-05-04T08:13:50.703Z,21.20
2023-05-04T08:16:18.581Z,21.56
2023-05-04T08:18:46.480Z,21.51
2023-05-04T08:21:14.650Z,21.72
2023-05-04T08:23:42.571Z,21.48
2023-05-04T08:26:10.757Z,20.89
2023-05-04T08:28:41.684Z,21.91
2023-05-04T08:31:11.017Z,22.30
2023-05-04T08:33:41.417Z,21.26
2023-05-04T08:36:09.949Z,21.66
2023-05-04T08:38:37.918Z,22.00
2023-05-04T08:41:06.275Z,22.33
2023-05-04T08:43:36.297Z,22.82
2023-05-04T08:46:05.197Z,22.34
2023-05-04T08:48:35.109Z,23.51
2023-05-04T08:51:04.444Z,22.90
2023-05-04T08:53:33.707Z,23.03
2023-05-04T08:56:04.656Z,23.49
2023-05-04T08:58:37.674Z,24.04
2023-05-04T09:01:07.776Z,24.04
2023-05-04T09:03:40.534Z,23.62
2023-05-04T09:06:09.435Z,23.42
2023-05-04T09:08:37.360Z,23.40
2023-05-04T09:11:05.347Z,23.83
2023-05-04T09:13:33.992Z,23.39
2023-05-04T09:16:03.825Z,23.83
2023-05-04T09:18:41.118Z,23.10
2023-05-04T09:21:09.444Z,24.27
2023-05-04T09:23:47.702Z,24.43
2023-05-04T09:26:15.690Z,24.77
2023-05-04T09:28:43.762Z,24.46
2023-05-04T09:31:12.196Z,24.43
2023-05-04T09:33:41.625Z,25.37
2023-05-04T09:36:16.481Z,24.62
2023-05-04T09:38:44.601Z,24.92
2023-05-04T09:41:12.637Z,26.08
2023-05-04T09:43:41.778Z,24.97
2023-05-04T09:46:18.070Z,25.65
2023-05-04T09:48:54.164Z,25.22
2023-05-04T09:51:26.557Z,24.72
2023-05-04T09:53:54.861Z,24.19
2023-05-04T09:56:33.650Z,24.74
2023-05-04T09:59:01.504Z,25.25
2023-05-04T10:01:30.451Z,25.61
2023-05-04T10:04:02.968Z,25.55
2023-05-04T10:06:31.352Z,25.60
2023-05-04T10:09:00.531Z,24.48
2023-05-04T10:11:31.677Z,25.82
2023-05-04T10:13:59.542Z,25.31
2023-05-04T10:16:38.027Z,25.06
2023-05-04T10:19:33.492Z,26.02
2023-05-04T10:22:14.738Z,25.89
2023-05-04T10:25:22.483Z,24.62
2023-05-04T10:28:02.288Z,25.01
2023-05-04T10:30:30.817Z,24.57
2023-05-04T10:33:00.388Z,25.35
2023-05-04T10:35:29.732Z,25.47
2023-05-04T10:37:58.104Z,25.82
2023-05-04T10:40:41.346Z,25.95
2023-05-04T10:43:11.320Z,25.64
2023-05-04T10:45:39.746Z,25.70
2023-05-04T10:48:08.398Z,26.49
2023-05-04T10:50:44.746Z,25.93
2023-05-04T10:53:13.048Z,25.84
2023-05-04T10:55:42.587Z,26.47
2023-05-04T10:58:14.717Z,25.87
2023-05-04T11:00:47.399Z,25.58
2023-05-04T11:03:15.813Z,25.85
2023-05-04T11:05:46.423Z,27.01
2023-05-04T11:08:21.669Z,26.38
2023-05-04T11:10:50.967Z,25.72
2023-05-04T11:13:19.325Z,26.24
2023-05-04T11:15:48.364Z,27.06
2023-05-04T11:18:27.465Z,26.85
2023-05-04T11:20:59.852Z,26.95
2023-05-04T11:23:28.287Z,27.21
2023-05-04T11:25:56.404Z,27.20
2023-05-04T11:28:33.103Z,27.14
2023-05-04T11:31:01.033Z,26.54
2023-05-04T11:33:30.320Z,27.06
2023-05-04T11:36:05.676Z,27.37
2023-05-04T11:38:33.602Z,26.18
2023-05-04T11:41:02.595Z,26.75
2023-05-04T11:43:31.664Z,26.10
2023-05-04T11:46:01.389Z,26.16
2023-05-04T11:48:30.063Z,26.67
2023-05-04T11:50:58.284Z,26.40
2023-05-04T11:53:28.934Z,26.97
2023-05-04T11:56:03.294Z,26.91
2023-05-04T11:58:31.120Z,26.42
2023-05-04T12:00:59.891Z,26.55
2023-05-04T12:03:39.865Z,27.30
2023-05-04T12:06:16.412Z,27.30
2023-05-04T12:08:45.651Z,26.84
2023-05-04T12:11:14.609Z,27.53
2023-05-04T12:13:43.490Z,27.07
2023-05-04T12:16:12.753Z,27.31
2023-05-04T12:18:41.489Z,27.07
2023-05-04T12:21:10.924Z,26.27
2023-05-04T12:23:39.306Z,27.03
2023-05-04T12:26:08.828Z,25.55
2023-05-04T12:28:37.237Z,25.55
2023-05-04T12:31:07.852Z,27.09
2023-05-04T12:33:36.393Z,26.35
2023-05-04T12:36:05.910Z,27.03
2023-05-04T12:38:34.458Z,27.86
2023-05-04T12:41:04.297Z,27.21
2023-05-04T12:43:33.763Z,27.82
2023-05-04T12:46:01.566Z,27.59
2023-05-04T12:48:31.932Z,27.36
2023-05-04T12:51:00.510Z,27.85
2023-05-04T12:53:30.004Z,27.27
2023-05-04T12:55:58.123Z,27.45
2023-05-04T12:58:25.946Z,26.67
2023-05-04T13:00:56.045Z,27.54
2023-05-04T13:03:23.950Z,26.60
2023-05-04T13:05:51.987Z,27.04
2023-05-04T13:08:19.975Z,27.11
2023-05-04T13:10:48.108Z,27.38
2023-05-04T13:13:18.062Z,27.77
2023-05-04T13:15:46.290Z,26.92
2023-05-04T13:18:15.365Z,27.12
2023-05-04T13:20:45.135Z,27.68
2023-05-04T13:23:13.942Z,27.86
2023-05-04T13:25:42.182Z,27.01
2023-05-04T13:28:09.957Z,27.29
2023-05-04T13:30:37.800Z,27.66
2023-05-04T13:33:16.699Z,27.26
2023-05-04T13:35:50.741Z,27.28
2023-05-04T13:38:18.931Z,27.43
2023-05-04T13:40:46.949Z,27.08
2023-05-04T13:43:19.968Z,27.46
2023-05-04T13:45:49.328Z,26.86
2023-05-04T13:48:19.287Z,27.42
2023-05-04T13:50:47.134Z,27.14
2023-05-04T13:53:16.502Z,26.76
2023-05-04T13:55:45.268Z,26.43
2023-05-04T13:58:13.135Z,25.89
2023-05-04T14:00:41.043Z,26.11
2023-05-04T14:03:09.004Z,26.69
2023-05-04T14:05:36.915Z,26.85
2023-05-04T14:08:05.147Z,26.55
2023-05-04T14:10:36.654Z,26.08
2023-05-04T14:13:05.618Z,26.42
2023-05-04T14:15:36.540Z,26.50
2023-05-04T14:18:04.561Z,26.30
2023-05-04T14:20:32.983Z,26.36
2023-05-04T14:23:00.906Z,26.29
2023-05-04T14:25:28.734Z,26.32
2023-05-04T14:27:57.953Z,26.27
2023-05-04T14:30:26.580Z,26.83
2023-05-04T14:32:56.131Z,26.00
2023-05-04T14:35:24.090Z,24.99
2023-05-04T14:37:51.931Z,25.61
2023-05-04T14:40:19.822Z,25.88
2023-05-04T14:42:47.871Z,26.06
2023-05-04T14:45:17.328Z,25.78
2023-05-04T14:47:45.502Z,25.75
2023-05-04T14:50:13.741Z,25.81
2023-05-04T14:52:41.618Z,26.00
2023-05-04T14:55:10.343Z,25.83
2023-05-04T14:57:38.143Z,25.81
2023-05-04T15:00:08.880Z,25.61
2023-05-04T15:02:39.373Z,25.67
2023-05-04T15:05:09.814Z,25.85
2023-05-04T15:07:37.627Z,25.76
2023-05-04T15:10:07.524Z,25.87
2023-05-04T15:12:36.114Z,25.86
2023-05-04T15:15:04.772Z,25.76
2023-05-04T15:17:35.207Z,25.52
2023-05-04T15:20:08.310Z,25.35
2023-05-04T15:22:36.601Z,25.74
2023-05-04T15:25:04.617Z,25.54
2023-05-04T15:27:32.549Z,25.14
2023-05-04T15:30:00.468Z,25.53
2023-05-04T15:32:28.483Z,25.17
2023-05-04T15:35:04.662Z,25.50
2023-05-04T15:37:35.580Z,25.02
2023-05-04T15:40:04.724Z,24.91
2023-05-04T15:42:32.927Z,25.20
2023-05-04T15:45:00.726Z,25.34
2023-05-04T15:47:28.591Z,25.16
2023-05-04T15:49:56.410Z,25.23
2023-05-04T15:52:24.786Z,25.46
2023-05-04T15:54:53.897Z,25.47
2023-05-04T15:57:21.662Z,25.27
2023-05-04T15:59:49.950Z,25.19
2023-05-04T16:02:17.754Z,25.49
2023-05-04T16:04:45.617Z,25.60
2023-05-04T16:07:13.578Z,25.59
2023-05-04T16:09:41.351Z,25.83
2023-05-04T16:12:10.811Z,25.75
2023-05-04T16:14:38.623Z,25.63
2023-05-04T16:17:07.447Z,25.64
2023-05-04T16:19:35.421Z,24.94
2023-05-04T16:22:03.370Z,24.48
2023-05-04T16:24:31.426Z,24.53
2023-05-04T16:27:00.175Z,24.44
2023-05-04T16:29:29.291Z,24.21
2023-05-04T16:31:57.080Z,24.35
2023-05-04T16:34:24.794Z,24.36
2023-05-04T16:36:54.568Z,24.81
2023-05-04T16:39:22.351Z,24.95
2023-05-04T16:41:52.506Z,24.83
2023-05-04T16:44:20.443Z,24.77
2023-05-04T16:46:51.113Z,24.54
2023-05-04T16:49:19.008Z,24.68
2023-05-04T16:51:46.873Z,24.81
2023-05-04T16:54:15.189Z,24.73
2023-05-04T16:56:43.102Z,24.31
2023-05-04T16:59:11.391Z,24.05
2023-05-04T17:01:39.374Z,23.86
2023-05-04T17:04:09.178Z,23.99
2023-05-04T17:06:37.181Z,24.11
2023-05-04T17:09:05.320Z,23.93
2023-05-04T17:11:33.408Z,23.83
2023-05-04T17:14:01.441Z,23.81
2023-05-04T17:16:29.267Z,23.42
2023-05-04T17:18:57.204Z,23.62
2023-05-04T17:21:26.448Z,23.93
2023-05-04T17:23:54.201Z,23.66
2023-05-04T17:26:21.928Z,23.90
2023-05-04T17:28:49.813Z,23.91
2023-05-04T17:31:17.653Z,23.93
2023-05-04T17:33:46.261Z,23.88
2023-05-04T17:36:14.088Z,23.49
2023-05-04T17:38:43.219Z,23.49
2023-05-04T17:41:11.115Z,23.23
2023-05-04T17:43:39.173Z,23.27
2023-05-04T17:46:07.049Z,22.96
2023-05-04T17:48:36.342Z,23.19
2023-05-04T17:51:08.341Z,22.62
2023-05-04T17:53:36.673Z,23.05
2023-05-04T17:56:06.136Z,22.92
2023-05-04T17:58:34.117Z,22.75
2023-05-04T18:01:04.342Z,22.73
2023-05-04T18:03:32.561Z,22.69
2023-05-04T18:06:00.661Z,22.52
2023-05-04T18:08:28.434Z,22.53
2023-05-04T18:10:56.335Z,22.60
2023-05-04T18:13:25.683Z,22.43
2023-05-04T18:15:54.481Z,22.19
2023-05-04T18:18:22.322Z,22.20
2023-05-04T18:20:50.170Z,22.18
2023-05-04T18:23:17.919Z,22.09
2023-05-04T18:25:45.765Z,22.07
2023-05-04T18:28:13.720Z,22.16
2023-05-04T18:30:42.915Z,21.92
2023-05-04T18:33:10.706Z,22.00
2023-05-04T18:35:38.620Z,21.78
2023-05-04T18:38:06.429Z,21.91
2023-05-04T18:40:34.294Z,21.74
2023-05-04T18:43:02.192Z,21.76
2023-05-04T18:45:30.017Z,21.52
2023-05-04T18:48:01.425Z,21.66
2023-05-04T18:50:32.420Z,21.69
2023-05-04T18:53:00.319Z,21.58
2023-05-04T18:55:28.087Z,21.12
2023-05-04T18:57:55.907Z,21.36
2023-05-04T19:00:23.899Z,21.08
2023-05-04T19:02:51.813Z,20.52
2023-05-04T19:05:23.258Z,20.80
2023-05-04T19:07:51.111Z,20.89
2023-05-04T19:10:19.118Z,20.73
2023-05-04T19:12:47.314Z,20.78
2023-05-04T19:15:15.229Z,20.77
2023-05-04T19:17:43.017Z,20.57
2023-05-04T19:20:11.360Z,20.68
2023-05-04T19:22:40.483Z,20.43
2023-05-04T19:25:09.549Z,20.46
2023-05-04T19:27:37.980Z,20.43
2023-05-04T19:30:07.238Z,20.37
2023-05-04T19:32:35.286Z,19.70
2023-05-04T19:35:03.288Z,20.06
2023-05-04T19:37:31.113Z,19.87
2023-05-04T19:40:00.370Z,20.04
2023-05-04T19:42:28.415Z,20.22
2023-05-04T19:44:56.300Z,20.00
2023-05-04T19:47:24.335Z,20.11
2023-05-04T19:49:52.362Z,20.04
2023-05-04T19:52:20.218Z,20.20
2023-05-04T19:54:53.674Z,20.23
2023-05-04T19:57:23.240Z,20.00
2023-05-04T19:59:51.101Z,20.04
2023-05-04T20:02:18.942Z,19.88
2023-05-04T20:04:46.722Z,20.47
2023-05-04T20:07:14.609Z,20.32
2023-05-04T20:09:42.399Z,20.19
2023-05-04T20:12:10.812Z,20.02
2023-05-04T20:14:41.159Z,19.96
2023-05-04T20:17:09.140Z,19.85
2023-05-04T20:19:37.590Z,19.71
2023-05-04T20:22:05.568Z,19.56
2023-05-04T20:24:33.419Z,19.41
2023-05-04T20:27:01.286Z,19.03
2023-05-04T20:29:29.202Z,19.04
2023-05-04T20:31:58.596Z,18.92
2023-05-04T20:34:28.986Z,18.68
2023-05-04T20:36:56.835Z,18.84
2023-05-04T20:39:24.704Z,18.89
2023-05-04T20:41:52.970Z,18.94
2023-05-04T20:44:20.772Z,18.96
2023-05-04T20:46:48.660Z,18.91
2023-05-04T20:49:20.965Z,18.87
2023-05-04T20:51:51.076Z,18.77
2023-05-04T20:54:18.891Z,18.70
2023-05-04T20:56:46.712Z,18.45
2023-05-04T20:59:14.454Z,18.47
2023-05-04T21:01:42.354Z,18.19
2023-05-04T21:04:10.531Z,17.96
2023-05-04T21:06:39.711Z,17.92
2023-05-04T21:09:07.854Z,17.92
2023-05-04T21:11:35.716Z,18.11
2023-05-04T21:14:03.520Z,17.98
2023-05-04T21:16:31.722Z,18.04
2023-05-04T21:18:59.614Z,17.71
2023-05-04T21:21:27.431Z,17.44
2023-05-04T21:23:56.731Z,17.16
2023-05-04T21:26:26.794Z,17.07
2023-05-04T21:28:54.625Z,16.96
2023-05-04T21:31:22.331Z,17.13
2023-05-04T21:33:52.241Z,17.52
2023-05-04T21:36:20.194Z,17.71
2023-05-04T21:38:47.958Z,17.74
2023-05-04T21:41:18.054Z,17.88
2023-05-04T21:43:45.874Z,17.84
2023-05-04T21:46:14.462Z,17.89
2023-05-04T21:48:42.489Z,17.89
2023-05-04T21:51:10.393Z,17.80
2023-05-04T21:53:40.340Z,17.48
2023-05-04T21:56:09.966Z,17.64
2023-05-04T21:58:40.326Z,17.46
2023-05-04T22:01:08.692Z,17.13
2023-05-04T22:03:36.964Z,17.43
2023-05-04T22:06:05.449Z,17.49
2023-05-04T22:08:33.226Z,17.54
2023-05-04T22:11:01.110Z,17.47
2023-05-04T22:13:29.074Z,17.27
2023-05-04T22:15:58.288Z,16.97
2023-05-04T22:18:26.149Z,16.98
2023-05-04T22:20:54.073Z,17.00
2023-05-04T22:23:21.852Z,16.98
2023-05-04T22:25:49.744Z,17.18
2023-05-04T22:28:18.003Z,17.08
2023-05-04T22:30:45.941Z,17.04
2023-05-04T22:33:15.533Z,17.14
2023-05-04T22:35:43.842Z,17.01
2023-05-04T22:38:11.944Z,17.00
2023-05-04T22:40:40.554Z,17.05
2023-05-04T22:43:08.584Z,17.06
2023-05-04T22:45:36.731Z,17.07
2023-05-04T22:48:04.834Z,16.90
2023-05-04T22:50:34.302Z,16.92
2023-05-04T22:53:02.227Z,16.92
2023-05-04T22:55:30.296Z,16.81
2023-05-04T22:57:58.113Z,16.63
2023-05-04T23:00:26.078Z,16.63
2023-05-04T23:02:54.054Z,16.65
2023-05-04T23:05:24.116Z,16.58
2023-05-04T23:07:53.384Z,16.50
2023-05-04T23:10:21.672Z,16.54
2023-05-04T23:12:51.550Z,16.47
2023-05-04T23:15:19.342Z,16.52
2023-05-04T23:17:47.435Z,16.58
2023-05-04T23:20:16.704Z,16.61
2023-05-04T23:22:44.499Z,16.61
2023-05-04T23:25:13.618Z,16.72
2023-05-04T23:27:41.730Z,16.73
2023-05-04T23:30:10.551Z,16.81
2023-05-04T23:32:38.382Z,16.69
2023-05-04T23:35:07.700Z,16.58
2023-05-04T23:37:35.471Z,16.53
2023-05-04T23:40:03.471Z,16.17
2023-05-04T23:42:32.609Z,16.26
2023-05-04T23:45:00.365Z,16.57
2023-05-04T23:47:28.209Z,16.74
2023-05-04T23:49:58.544Z,16.76
2023-05-04T23:52:26.457Z,16.53
2023-05-04T23:54:54.783Z,16.49
2023-05-04T23:57:22.640Z,16.59
2023-05-04T23:59:53.363Z,16.70
